sensor_id;sensor_type;location;lat;lon;timestamp;temperature;humidity
74946;HTU21D;63509;45.250;38.102;2022-10-12T00:01:26;10.66;69.81
74946;HTU21D;63509;45.250;38.102;2022-10-12T00:03:52;10.69;69.84
74946;HTU21D;63509;45.250;38.102;2022-10-12T00:06:21;10.73;69.82
74946;HTU21D;63509;45.250;38.102;2022-10-12T00:08:48;10.77;69.82
74946;HTU21D;63509;45.250;38.102;2022-10-12T00:11:18;10.80;69.81
74946;HTU21D;63509;45.250;38.102;2022-10-12T00:13:44;10.82;69.81
74946;HTU21D;63509;45.250;38.102;2022-10-12T00:16:12;10.84;69.84
74946;HTU21D;63509;45.250;38.102;2022-10-12T00:18:38;10.86;69.84
74946;HTU21D;63509;45.250;38.102;2022-10-12T00:21:13;10.88;69.77
74946;HTU21D;63509;45.250;38.102;2022-10-12T00:23:40;10.88;69.82
74946;HTU21D;63509;45.250;38.102;2022-10-12T00:26:09;10.89;69.83
74946;HTU21D;63509;45.250;38.102;2022-10-12T00:28:35;10.88;69.79
74946;HTU21D;63509;45.250;38.102;2022-10-12T00:31:10;10.87;69.75
74946;HTU21D;63509;45.250;38.102;2022-10-12T00:33:36;10.85;69.74
74946;HTU21D;63509;45.250;38.102;2022-10-12T00:36:23;10.82;69.58
74946;HTU21D;63509;45.250;38.102;2022-10-12T00:38:51;10.75;69.72
74946;HTU21D;63509;45.250;38.102;2022-10-12T00:41:20;10.71;69.73
74946;HTU21D;63509;45.250;38.102;2022-10-12T00:43:47;10.64;69.78
74946;HTU21D;63509;45.250;38.102;2022-10-12T00:46:19;10.58;69.85
74946;HTU21D;63509;45.250;38.102;2022-10-12T00:48:58;10.51;69.91
74946;HTU21D;63509;45.250;38.102;2022-10-12T00:51:25;10.45;69.98
74946;HTU21D;63509;45.250;38.102;2022-10-12T00:53:58;10.40;69.96
74946;HTU21D;63509;45.250;38.102;2022-10-12T00:56:28;10.38;70.03
74946;HTU21D;63509;45.250;38.102;2022-10-12T00:58:59;10.34;70.03
74946;HTU21D;63509;45.250;38.102;2022-10-12T01:01:27;10.29;70.09
74946;HTU21D;63509;45.250;38.102;2022-10-12T01:03:53;10.24;70.16
74946;HTU21D;63509;45.250;38.102;2022-10-12T01:06:20;10.21;70.23
74946;HTU21D;63509;45.250;38.102;2022-10-12T01:08:46;10.16;70.33
74946;HTU21D;63509;45.250;38.102;2022-10-12T01:11:12;10.14;70.44
74946;HTU21D;63509;45.250;38.102;2022-10-12T01:13:38;10.13;70.55
74946;HTU21D;63509;45.250;38.102;2022-10-12T01:19:09;10.13;70.35
74946;HTU21D;63509;45.250;38.102;2022-10-12T01:21:47;10.11;70.47
74946;HTU21D;63509;45.250;38.102;2022-10-12T01:24:43;10.09;70.36
74946;HTU21D;63509;45.250;38.102;2022-10-12T01:30:04;9.95;70.59
74946;HTU21D;63509;45.250;38.102;2022-10-12T01:33:22;9.91;70.45
74946;HTU21D;63509;45.250;38.102;2022-10-12T01:35:58;9.86;70.62
74946;HTU21D;63509;45.250;38.102;2022-10-12T01:38:42;9.84;70.59
74946;HTU21D;63509;45.250;38.102;2022-10-12T01:42:07;9.83;70.68
74946;HTU21D;63509;45.250;38.102;2022-10-12T01:44:07;9.83;70.80
74946;HTU21D;63509;45.250;38.102;2022-10-12T01:49:00;9.81;70.96
74946;HTU21D;63509;45.250;38.102;2022-10-12T01:54:29;9.82;70.84
74946;HTU21D;63509;45.250;38.102;2022-10-12T01:57:08;9.79;70.84
74946;HTU21D;63509;45.250;38.102;2022-10-12T02:05:21;9.72;70.94
74946;HTU21D;63509;45.250;38.102;2022-10-12T02:07:51;9.67;70.98
74946;HTU21D;63509;45.250;38.102;2022-10-12T02:10:23;9.64;71.03
74946;HTU21D;63509;45.250;38.102;2022-10-12T02:12:53;9.59;71.06
74946;HTU21D;63509;45.250;38.102;2022-10-12T02:15:23;9.56;71.14
74946;HTU21D;63509;45.250;38.102;2022-10-12T02:17:52;9.53;71.23
74946;HTU21D;63509;45.250;38.102;2022-10-12T02:20:19;9.50;71.22
74946;HTU21D;63509;45.250;38.102;2022-10-12T02:22:49;9.48;71.26
74946;HTU21D;63509;45.250;38.102;2022-10-12T02:25:19;9.46;71.42
74946;HTU21D;63509;45.250;38.102;2022-10-12T02:27:52;9.45;71.43
74946;HTU21D;63509;45.250;38.102;2022-10-12T02:30:20;9.45;71.41
74946;HTU21D;63509;45.250;38.102;2022-10-12T02:33:02;9.44;71.38
74946;HTU21D;63509;45.250;38.102;2022-10-12T02:35:59;9.41;71.29
74946;HTU21D;63509;45.250;38.102;2022-10-12T02:38:37;9.39;71.45
74946;HTU21D;63509;45.250;38.102;2022-10-12T02:41:08;9.39;71.51
74946;HTU21D;63509;45.250;38.102;2022-10-12T02:43:52;9.36;71.48
74946;HTU21D;63509;45.250;38.102;2022-10-12T02:46:21;9.37;71.54
74946;HTU21D;63509;45.250;38.102;2022-10-12T02:48:52;9.35;71.51
74946;HTU21D;63509;45.250;38.102;2022-10-12T02:51:19;9.33;71.54
74946;HTU21D;63509;45.250;38.102;2022-10-12T02:53:46;9.34;71.54
74946;HTU21D;63509;45.250;38.102;2022-10-12T02:56:14;9.32;71.58
74946;HTU21D;63509;45.250;38.102;2022-10-12T02:58:42;9.30;71.60
74946;HTU21D;63509;45.250;38.102;2022-10-12T03:01:09;9.29;71.67
74946;HTU21D;63509;45.250;38.102;2022-10-12T03:03:35;9.29;71.67
74946;HTU21D;63509;45.250;38.102;2022-10-12T03:06:02;9.26;71.72
74946;HTU21D;63509;45.250;38.102;2022-10-12T03:08:28;9.25;71.69
74946;HTU21D;63509;45.250;38.102;2022-10-12T03:10:59;9.25;71.71
74946;HTU21D;63509;45.250;38.102;2022-10-12T03:13:25;9.23;71.71
74946;HTU21D;63509;45.250;38.102;2022-10-12T03:15:51;9.21;71.69
74946;HTU21D;63509;45.250;38.102;2022-10-12T03:18:17;9.20;71.71
74946;HTU21D;63509;45.250;38.102;2022-10-12T03:20:47;9.19;71.68
74946;HTU21D;63509;45.250;38.102;2022-10-12T03:23:13;9.16;71.76
74946;HTU21D;63509;45.250;38.102;2022-10-12T03:25:40;9.15;71.81
74946;HTU21D;63509;45.250;38.102;2022-10-12T03:28:06;9.14;71.89
74946;HTU21D;63509;45.250;38.102;2022-10-12T03:30:33;9.12;71.96
74946;HTU21D;63509;45.250;38.102;2022-10-12T03:32:58;9.10;72.04
74946;HTU21D;63509;45.250;38.102;2022-10-12T03:35:25;9.11;72.06
74946;HTU21D;63509;45.250;38.102;2022-10-12T03:37:51;9.10;72.06
74946;HTU21D;63509;45.250;38.102;2022-10-12T03:40:17;9.10;72.12
74946;HTU21D;63509;45.250;38.102;2022-10-12T03:42:43;9.09;72.16
74946;HTU21D;63509;45.250;38.102;2022-10-12T03:45:09;9.09;72.13
74946;HTU21D;63509;45.250;38.102;2022-10-12T03:47:35;9.07;72.26
74946;HTU21D;63509;45.250;38.102;2022-10-12T03:50:03;9.08;72.28
74946;HTU21D;63509;45.250;38.102;2022-10-12T03:52:29;9.08;72.32
74946;HTU21D;63509;45.250;38.102;2022-10-12T03:54:55;9.08;72.32
74946;HTU21D;63509;45.250;38.102;2022-10-12T03:57:22;9.08;72.39
74946;HTU21D;63509;45.250;38.102;2022-10-12T03:59:48;9.09;72.49
74946;HTU21D;63509;45.250;38.102;2022-10-12T04:02:14;9.08;72.51
74946;HTU21D;63509;45.250;38.102;2022-10-12T04:04:41;9.09;72.54
74946;HTU21D;63509;45.250;38.102;2022-10-12T04:07:07;9.10;72.64
74946;HTU21D;63509;45.250;38.102;2022-10-12T04:09:33;9.10;72.67
74946;HTU21D;63509;45.250;38.102;2022-10-12T04:11:59;9.10;72.74
74946;HTU21D;63509;45.250;38.102;2022-10-12T04:14:25;9.11;72.77
74946;HTU21D;63509;45.250;38.102;2022-10-12T04:16:54;9.11;72.82
74946;HTU21D;63509;45.250;38.102;2022-10-12T04:19:21;9.12;72.90
74946;HTU21D;63509;45.250;38.102;2022-10-12T04:21:47;9.14;72.99
74946;HTU21D;63509;45.250;38.102;2022-10-12T04:24:13;9.15;73.09
74946;HTU21D;63509;45.250;38.102;2022-10-12T04:26:39;9.17;73.25
74946;HTU21D;63509;45.250;38.102;2022-10-12T04:29:05;9.18;73.37
74946;HTU21D;63509;45.250;38.102;2022-10-12T04:31:31;9.20;73.57
74946;HTU21D;63509;45.250;38.102;2022-10-12T04:33:57;9.21;73.60
74946;HTU21D;63509;45.250;38.102;2022-10-12T04:36:24;9.24;73.80
74946;HTU21D;63509;45.250;38.102;2022-10-12T04:38:51;9.25;73.86
74946;HTU21D;63509;45.250;38.102;2022-10-12T04:41:18;9.30;73.96
74946;HTU21D;63509;45.250;38.102;2022-10-12T04:43:44;9.33;74.02
74946;HTU21D;63509;45.250;38.102;2022-10-12T04:46:10;9.35;74.18
74946;HTU21D;63509;45.250;38.102;2022-10-12T04:48:37;9.40;74.28
74946;HTU21D;63509;45.250;38.102;2022-10-12T04:51:03;9.45;74.48
74946;HTU21D;63509;45.250;38.102;2022-10-12T04:53:29;9.49;74.66
74946;HTU21D;63509;45.250;38.102;2022-10-12T04:55:56;9.57;74.73
74946;HTU21D;63509;45.250;38.102;2022-10-12T04:58:22;9.65;74.92
74946;HTU21D;63509;45.250;38.102;2022-10-12T05:00:48;9.75;75.17
74946;HTU21D;63509;45.250;38.102;2022-10-12T05:03:15;9.83;75.29
74946;HTU21D;63509;45.250;38.102;2022-10-12T05:05:43;9.94;75.36
74946;HTU21D;63509;45.250;38.102;2022-10-12T05:08:09;10.06;75.72
74946;HTU21D;63509;45.250;38.102;2022-10-12T05:10:35;10.14;75.71
74946;HTU21D;63509;45.250;38.102;2022-10-12T05:13:01;10.25;75.71
74946;HTU21D;63509;45.250;38.102;2022-10-12T05:15:27;10.37;76.14
74946;HTU21D;63509;45.250;38.102;2022-10-12T05:17:54;10.49;76.06
74946;HTU21D;63509;45.250;38.102;2022-10-12T05:20:20;10.64;76.15
74946;HTU21D;63509;45.250;38.102;2022-10-12T05:22:46;10.77;76.53
74946;HTU21D;63509;45.250;38.102;2022-10-12T05:25:12;10.90;77.34
74946;HTU21D;63509;45.250;38.102;2022-10-12T05:27:38;11.10;78.00
74946;HTU21D;63509;45.250;38.102;2022-10-12T05:30:05;11.25;78.61
74946;HTU21D;63509;45.250;38.102;2022-10-12T05:32:31;11.43;79.07
74946;HTU21D;63509;45.250;38.102;2022-10-12T05:34:57;11.60;79.22
74946;HTU21D;63509;45.250;38.102;2022-10-12T05:37:24;11.78;79.43
74946;HTU21D;63509;45.250;38.102;2022-10-12T05:39:50;11.96;79.68
74946;HTU21D;63509;45.250;38.102;2022-10-12T05:42:17;12.14;79.78
74946;HTU21D;63509;45.250;38.102;2022-10-12T05:44:43;12.32;79.40
74946;HTU21D;63509;45.250;38.102;2022-10-12T05:47:09;12.50;79.88
74946;HTU21D;63509;45.250;38.102;2022-10-12T05:49:35;12.67;79.69
74946;HTU21D;63509;45.250;38.102;2022-10-12T05:52:01;12.86;79.61
74946;HTU21D;63509;45.250;38.102;2022-10-12T05:54:27;13.03;79.27
74946;HTU21D;63509;45.250;38.102;2022-10-12T05:56:53;13.20;78.98
74946;HTU21D;63509;45.250;38.102;2022-10-12T06:09:22;14.07;77.86
74946;HTU21D;63509;45.250;38.102;2022-10-12T06:11:48;14.22;77.91
74946;HTU21D;63509;45.250;38.102;2022-10-12T06:14:15;14.39;78.21
74946;HTU21D;63509;45.250;38.102;2022-10-12T06:16:41;14.59;77.95
74946;HTU21D;63509;45.250;38.102;2022-10-12T06:19:09;14.81;77.40
74946;HTU21D;63509;45.250;38.102;2022-10-12T06:21:37;14.99;77.05
74946;HTU21D;63509;45.250;38.102;2022-10-12T06:24:03;15.23;76.59
74946;HTU21D;63509;45.250;38.102;2022-10-12T06:26:29;15.44;76.36
74946;HTU21D;63509;45.250;38.102;2022-10-12T06:28:55;15.66;76.34
74946;HTU21D;63509;45.250;38.102;2022-10-12T06:31:21;15.87;76.14
74946;HTU21D;63509;45.250;38.102;2022-10-12T06:33:47;16.11;75.82
74946;HTU21D;63509;45.250;38.102;2022-10-12T06:36:15;16.35;75.22
74946;HTU21D;63509;45.250;38.102;2022-10-12T06:38:41;16.57;74.31
74946;HTU21D;63509;45.250;38.102;2022-10-12T06:41:07;16.77;74.12
74946;HTU21D;63509;45.250;38.102;2022-10-12T06:43:33;16.99;73.61
74946;HTU21D;63509;45.250;38.102;2022-10-12T06:46:00;17.21;73.16
74946;HTU21D;63509;45.250;38.102;2022-10-12T06:48:27;17.46;72.63
74946;HTU21D;63509;45.250;38.102;2022-10-12T06:50:53;17.68;72.40
74946;HTU21D;63509;45.250;38.102;2022-10-12T06:53:19;17.90;71.70
74946;HTU21D;63509;45.250;38.102;2022-10-12T06:55:47;18.08;71.18
74946;HTU21D;63509;45.250;38.102;2022-10-12T06:58:13;18.29;70.58
74946;HTU21D;63509;45.250;38.102;2022-10-12T07:00:39;18.50;69.07
74946;HTU21D;63509;45.250;38.102;2022-10-12T07:03:05;18.68;68.86
74946;HTU21D;63509;45.250;38.102;2022-10-12T07:05:31;18.84;68.16
74946;HTU21D;63509;45.250;38.102;2022-10-12T07:07:57;19.00;67.81
74946;HTU21D;63509;45.250;38.102;2022-10-12T07:10:23;19.20;66.75
74946;HTU21D;63509;45.250;38.102;2022-10-12T07:12:49;19.39;67.07
74946;HTU21D;63509;45.250;38.102;2022-10-12T07:15:15;19.59;66.11
74946;HTU21D;63509;45.250;38.102;2022-10-12T07:17:41;19.79;66.36
74946;HTU21D;63509;45.250;38.102;2022-10-12T07:20:08;20.02;64.79
74946;HTU21D;63509;45.250;38.102;2022-10-12T07:22:34;20.22;64.60
74946;HTU21D;63509;45.250;38.102;2022-10-12T07:25:00;20.45;63.76
74946;HTU21D;63509;45.250;38.102;2022-10-12T07:27:26;20.62;63.13
74946;HTU21D;63509;45.250;38.102;2022-10-12T07:29:52;20.81;62.90
74946;HTU21D;63509;45.250;38.102;2022-10-12T07:32:18;20.95;61.92
74946;HTU21D;63509;45.250;38.102;2022-10-12T07:34:44;21.01;61.00
74946;HTU21D;63509;45.250;38.102;2022-10-12T07:37:10;21.00;60.75
74946;HTU21D;63509;45.250;38.102;2022-10-12T07:39:37;20.93;60.10
74946;HTU21D;63509;45.250;38.102;2022-10-12T07:42:04;20.78;59.77
74946;HTU21D;63509;45.250;38.102;2022-10-12T07:44:30;20.63;59.68
74946;HTU21D;63509;45.250;38.102;2022-10-12T07:46:56;20.49;59.73
74946;HTU21D;63509;45.250;38.102;2022-10-12T07:49:23;20.36;59.99
74946;HTU21D;63509;45.250;38.102;2022-10-12T07:51:49;20.33;60.22
74946;HTU21D;63509;45.250;38.102;2022-10-12T07:54:15;20.37;60.15
74946;HTU21D;63509;45.250;38.102;2022-10-12T07:56:41;20.46;60.12
74946;HTU21D;63509;45.250;38.102;2022-10-12T07:59:07;20.59;59.69
74946;HTU21D;63509;45.250;38.102;2022-10-12T08:01:34;20.73;59.40
74946;HTU21D;63509;45.250;38.102;2022-10-12T08:04:00;20.84;59.25
74946;HTU21D;63509;45.250;38.102;2022-10-12T08:06:28;21.01;58.88
74946;HTU21D;63509;45.250;38.102;2022-10-12T08:08:58;21.16;58.62
74946;HTU21D;63509;45.250;38.102;2022-10-12T08:11:25;21.29;58.28
74946;HTU21D;63509;45.250;38.102;2022-10-12T08:13:51;21.46;57.73
74946;HTU21D;63509;45.250;38.102;2022-10-12T08:16:19;21.57;56.91
74946;HTU21D;63509;45.250;38.102;2022-10-12T08:18:45;21.68;56.84
74946;HTU21D;63509;45.250;38.102;2022-10-12T08:21:13;21.83;56.96
74946;HTU21D;63509;45.250;38.102;2022-10-12T08:23:39;22.04;56.87
74946;HTU21D;63509;45.250;38.102;2022-10-12T08:26:06;22.22;55.81
74946;HTU21D;63509;45.250;38.102;2022-10-12T08:28:33;22.33;55.05
74946;HTU21D;63509;45.250;38.102;2022-10-12T08:30:59;22.35;54.59
74946;HTU21D;63509;45.250;38.102;2022-10-12T08:33:27;22.27;53.92
74946;HTU21D;63509;45.250;38.102;2022-10-12T08:35:53;22.07;53.49
74946;HTU21D;63509;45.250;38.102;2022-10-12T08:38:20;21.77;53.39
74946;HTU21D;63509;45.250;38.102;2022-10-12T08:40:54;21.49;54.62
74946;HTU21D;63509;45.250;38.102;2022-10-12T08:46:09;21.35;55.31
74946;HTU21D;63509;45.250;38.102;2022-10-12T08:48:54;21.47;55.78
74946;HTU21D;63509;45.250;38.102;2022-10-12T08:51:26;21.54;55.27
74946;HTU21D;63509;45.250;38.102;2022-10-12T08:56:29;21.83;54.74
74946;HTU21D;63509;45.250;38.102;2022-10-12T08:58:55;21.98;53.68
74946;HTU21D;63509;45.250;38.102;2022-10-12T09:18:18;22.09;52.42
74946;HTU21D;63509;45.250;38.102;2022-10-12T09:20:50;21.97;51.40
74946;HTU21D;63509;45.250;38.102;2022-10-12T09:23:23;21.76;51.36
74946;HTU21D;63509;45.250;38.102;2022-10-12T09:25:56;21.57;51.01
74946;HTU21D;63509;45.250;38.102;2022-10-12T09:28:40;21.54;51.92
74946;HTU21D;63509;45.250;38.102;2022-10-12T09:31:24;21.60;52.17
74946;HTU21D;63509;45.250;38.102;2022-10-12T09:33:57;21.70;51.56
74946;HTU21D;63509;45.250;38.102;2022-10-12T09:36:27;21.84;50.95
74946;HTU21D;63509;45.250;38.102;2022-10-12T09:38:53;22.02;50.75
74946;HTU21D;63509;45.250;38.102;2022-10-12T09:41:22;22.19;50.16
74946;HTU21D;63509;45.250;38.102;2022-10-12T09:43:52;22.35;49.63
74946;HTU21D;63509;45.250;38.102;2022-10-12T09:46:28;22.50;49.98
74946;HTU21D;63509;45.250;38.102;2022-10-12T09:48:58;22.67;49.16
74946;HTU21D;63509;45.250;38.102;2022-10-12T09:51:24;22.88;49.08
74946;HTU21D;63509;45.250;38.102;2022-10-12T09:53:51;23.15;48.91
74946;HTU21D;63509;45.250;38.102;2022-10-12T09:56:22;23.35;50.88
74946;HTU21D;63509;45.250;38.102;2022-10-12T09:58:54;23.43;48.84
74946;HTU21D;63509;45.250;38.102;2022-10-12T10:01:26;23.43;48.06
74946;HTU21D;63509;45.250;38.102;2022-10-12T10:06:37;23.20;47.41
74946;HTU21D;63509;45.250;38.102;2022-10-12T10:09:04;23.14;47.23
74946;HTU21D;63509;45.250;38.102;2022-10-12T10:11:31;23.14;47.28
74946;HTU21D;63509;45.250;38.102;2022-10-12T10:13:59;23.18;47.20
74946;HTU21D;63509;45.250;38.102;2022-10-12T10:16:27;23.26;47.06
74946;HTU21D;63509;45.250;38.102;2022-10-12T10:18:56;23.34;46.51
74946;HTU21D;63509;45.250;38.102;2022-10-12T10:21:32;23.34;46.40
74946;HTU21D;63509;45.250;38.102;2022-10-12T10:24:05;23.20;46.00
74946;HTU21D;63509;45.250;38.102;2022-10-12T10:26:54;22.98;46.15
74946;HTU21D;63509;45.250;38.102;2022-10-12T10:29:37;22.67;45.90
74946;HTU21D;63509;45.250;38.102;2022-10-12T10:32:25;22.39;46.32
74946;HTU21D;63509;45.250;38.102;2022-10-12T10:35:16;22.12;46.41
74946;HTU21D;63509;45.250;38.102;2022-10-12T10:37:51;21.81;46.51
74946;HTU21D;63509;45.250;38.102;2022-10-12T10:40:26;21.58;46.67
74946;HTU21D;63509;45.250;38.102;2022-10-12T10:42:59;21.39;47.01
74946;HTU21D;63509;45.250;38.102;2022-10-12T10:45:31;21.23;47.22
74946;HTU21D;63509;45.250;38.102;2022-10-12T10:48:06;21.17;47.89
74946;HTU21D;63509;45.250;38.102;2022-10-12T10:50:37;21.17;47.54
74946;HTU21D;63509;45.250;38.102;2022-10-12T10:53:22;21.17;47.92
74946;HTU21D;63509;45.250;38.102;2022-10-12T10:55:58;21.15;47.76
74946;HTU21D;63509;45.250;38.102;2022-10-12T10:58:45;21.20;48.03
74946;HTU21D;63509;45.250;38.102;2022-10-12T11:01:53;21.30;48.25
74946;HTU21D;63509;45.250;38.102;2022-10-12T11:04:28;21.35;47.82
74946;HTU21D;63509;45.250;38.102;2022-10-12T11:07:02;21.44;47.71
74946;HTU21D;63509;45.250;38.102;2022-10-12T11:09:40;21.46;47.66
74946;HTU21D;63509;45.250;38.102;2022-10-12T11:12:19;21.53;47.72
74946;HTU21D;63509;45.250;38.102;2022-10-12T11:14:50;21.57;47.09
74946;HTU21D;63509;45.250;38.102;2022-10-12T11:17:30;21.62;47.05
74946;HTU21D;63509;45.250;38.102;2022-10-12T11:25:24;21.75;47.06
74946;HTU21D;63509;45.250;38.102;2022-10-12T11:27:54;21.74;46.27
74946;HTU21D;63509;45.250;38.102;2022-10-12T11:30:22;21.78;46.44
74946;HTU21D;63509;45.250;38.102;2022-10-12T11:33:01;21.80;46.58
74946;HTU21D;63509;45.250;38.102;2022-10-12T11:35:33;21.80;46.20
74946;HTU21D;63509;45.250;38.102;2022-10-12T11:38:04;21.79;45.96
74946;HTU21D;63509;45.250;38.102;2022-10-12T11:40:36;21.76;46.04
74946;HTU21D;63509;45.250;38.102;2022-10-12T11:43:06;21.69;45.99
74946;HTU21D;63509;45.250;38.102;2022-10-12T11:45:44;21.65;46.39
74946;HTU21D;63509;45.250;38.102;2022-10-12T11:48:54;21.60;46.67
74946;HTU21D;63509;45.250;38.102;2022-10-12T11:51:22;21.50;46.40
74946;HTU21D;63509;45.250;38.102;2022-10-12T11:56:42;21.36;46.62
74946;HTU21D;63509;45.250;38.102;2022-10-12T11:59:17;21.29;46.44
74946;HTU21D;63509;45.250;38.102;2022-10-12T12:02:27;21.22;46.76
74946;HTU21D;63509;45.250;38.102;2022-10-12T12:04:54;21.09;46.31
74946;HTU21D;63509;45.250;38.102;2022-10-12T12:27:37;20.33;47.63
74946;HTU21D;63509;45.250;38.102;2022-10-12T12:32:56;20.22;47.22
74946;HTU21D;63509;45.250;38.102;2022-10-12T12:38:14;20.10;47.59
74946;HTU21D;63509;45.250;38.102;2022-10-12T12:40:55;19.99;47.83
74946;HTU21D;63509;45.250;38.102;2022-10-12T12:45:57;19.75;47.54
74946;HTU21D;63509;45.250;38.102;2022-10-12T12:54:06;19.51;47.95
74946;HTU21D;63509;45.250;38.102;2022-10-12T12:57:08;19.40;48.19
74946;HTU21D;63509;45.250;38.102;2022-10-12T13:07:54;19.02;48.44
74946;HTU21D;63509;45.250;38.102;2022-10-12T13:19:17;18.59;48.85
74946;HTU21D;63509;45.250;38.102;2022-10-12T13:21:49;18.53;49.26
74946;HTU21D;63509;45.250;38.102;2022-10-12T13:36:30;18.08;50.24
74946;HTU21D;63509;45.250;38.102;2022-10-12T13:38:59;17.99;50.47
74946;HTU21D;63509;45.250;38.102;2022-10-12T13:41:32;17.93;50.75
74946;HTU21D;63509;45.250;38.102;2022-10-12T13:44:03;17.88;50.86
74946;HTU21D;63509;45.250;38.102;2022-10-12T13:46:49;17.82;50.96
74946;HTU21D;63509;45.250;38.102;2022-10-12T13:49:23;17.75;51.18
74946;HTU21D;63509;45.250;38.102;2022-10-12T13:54:36;17.63;51.58
74946;HTU21D;63509;45.250;38.102;2022-10-12T13:59:51;17.48;51.82
74946;HTU21D;63509;45.250;38.102;2022-10-12T14:02:23;17.40;51.88
74946;HTU21D;63509;45.250;38.102;2022-10-12T14:04:53;17.35;52.04
74946;HTU21D;63509;45.250;38.102;2022-10-12T14:07:33;17.29;52.19
74946;HTU21D;63509;45.250;38.102;2022-10-12T14:10:04;17.19;52.40
74946;HTU21D;63509;45.250;38.102;2022-10-12T14:12:33;17.10;52.67
74946;HTU21D;63509;45.250;38.102;2022-10-12T14:15:00;17.04;52.81
74946;HTU21D;63509;45.250;38.102;2022-10-12T14:17:27;16.94;52.96
74946;HTU21D;63509;45.250;38.102;2022-10-12T14:19:54;16.89;53.15
74946;HTU21D;63509;45.250;38.102;2022-10-12T14:22:26;16.81;53.38
74946;HTU21D;63509;45.250;38.102;2022-10-12T14:25:24;16.75;53.33
74946;HTU21D;63509;45.250;38.102;2022-10-12T14:27:56;16.65;53.68
74946;HTU21D;63509;45.250;38.102;2022-10-12T14:30:27;16.58;54.05
74946;HTU21D;63509;45.250;38.102;2022-10-12T14:33:07;16.49;54.30
74946;HTU21D;63509;45.250;38.102;2022-10-12T14:35:34;16.41;54.55
74946;HTU21D;63509;45.250;38.102;2022-10-12T14:38:39;16.31;54.47
74946;HTU21D;63509;45.250;38.102;2022-10-12T14:44:09;16.08;55.04
74946;HTU21D;63509;45.250;38.102;2022-10-12T14:46:58;16.00;55.56
74946;HTU21D;63509;45.250;38.102;2022-10-12T14:49:35;15.86;55.64
74946;HTU21D;63509;45.250;38.102;2022-10-12T14:52:04;15.77;56.19
74946;HTU21D;63509;45.250;38.102;2022-10-12T14:54:30;15.70;56.47
74946;HTU21D;63509;45.250;38.102;2022-10-12T14:57:01;15.61;56.63
74946;HTU21D;63509;45.250;38.102;2022-10-12T14:59:35;15.49;57.10
74946;HTU21D;63509;45.250;38.102;2022-10-12T15:02:01;15.41;57.42
74946;HTU21D;63509;45.250;38.102;2022-10-12T15:04:27;15.31;57.69
74946;HTU21D;63509;45.250;38.102;2022-10-12T15:06:53;15.25;57.89
74946;HTU21D;63509;45.250;38.102;2022-10-12T15:09:19;15.16;58.16
74946;HTU21D;63509;45.250;38.102;2022-10-12T15:11:45;15.09;58.42
74946;HTU21D;63509;45.250;38.102;2022-10-12T15:14:11;15.03;58.74
74946;HTU21D;63509;45.250;38.102;2022-10-12T15:16:39;15.00;59.00
74946;HTU21D;63509;45.250;38.102;2022-10-12T15:19:05;14.97;59.13
74946;HTU21D;63509;45.250;38.102;2022-10-12T15:21:31;14.95;59.32
74946;HTU21D;63509;45.250;38.102;2022-10-12T15:23:57;14.93;59.46
74946;HTU21D;63509;45.250;38.102;2022-10-12T15:26:23;14.92;59.60
74946;HTU21D;63509;45.250;38.102;2022-10-12T15:28:49;14.89;59.75
74946;HTU21D;63509;45.250;38.102;2022-10-12T15:31:15;14.88;59.90
74946;HTU21D;63509;45.250;38.102;2022-10-12T15:33:42;14.85;60.01
74946;HTU21D;63509;45.250;38.102;2022-10-12T15:36:09;14.83;60.12
74946;HTU21D;63509;45.250;38.102;2022-10-12T15:38:35;14.80;60.20
74946;HTU21D;63509;45.250;38.102;2022-10-12T15:41:02;14.79;60.30
74946;HTU21D;63509;45.250;38.102;2022-10-12T15:43:28;14.75;60.39
74946;HTU21D;63509;45.250;38.102;2022-10-12T15:45:54;14.72;60.50
74946;HTU21D;63509;45.250;38.102;2022-10-12T15:48:21;14.71;60.67
74946;HTU21D;63509;45.250;38.102;2022-10-12T15:50:48;14.68;60.76
74946;HTU21D;63509;45.250;38.102;2022-10-12T15:53:19;14.64;60.68
74946;HTU21D;63509;45.250;38.102;2022-10-12T15:55:49;14.62;60.92
74946;HTU21D;63509;45.250;38.102;2022-10-12T15:58:15;14.57;61.04
74946;HTU21D;63509;45.250;38.102;2022-10-12T16:00:42;14.53;61.11
74946;HTU21D;63509;45.250;38.102;2022-10-12T16:03:17;14.47;61.07
74946;HTU21D;63509;45.250;38.102;2022-10-12T16:05:45;14.41;61.31
74946;HTU21D;63509;45.250;38.102;2022-10-12T16:08:11;14.36;61.41
74946;HTU21D;63509;45.250;38.102;2022-10-12T16:10:39;14.29;61.57
74946;HTU21D;63509;45.250;38.102;2022-10-12T16:13:07;14.25;61.66
74946;HTU21D;63509;45.250;38.102;2022-10-12T16:15:34;14.19;61.72
74946;HTU21D;63509;45.250;38.102;2022-10-12T16:18:02;14.13;61.83
74946;HTU21D;63509;45.250;38.102;2022-10-12T16:20:30;14.08;61.93
74946;HTU21D;63509;45.250;38.102;2022-10-12T16:22:58;14.01;62.02
74946;HTU21D;63509;45.250;38.102;2022-10-12T16:25:25;13.95;62.13
74946;HTU21D;63509;45.250;38.102;2022-10-12T16:27:53;13.91;62.22
74946;HTU21D;63509;45.250;38.102;2022-10-12T16:30:21;13.85;62.32
74946;HTU21D;63509;45.250;38.102;2022-10-12T16:32:48;13.82;62.47
74946;HTU21D;63509;45.250;38.102;2022-10-12T16:35:15;13.75;62.53
74946;HTU21D;63509;45.250;38.102;2022-10-12T16:37:42;13.70;62.66
74946;HTU21D;63509;45.250;38.102;2022-10-12T16:40:09;13.66;62.79
74946;HTU21D;63509;45.250;38.102;2022-10-12T16:42:35;13.63;62.86
74946;HTU21D;63509;45.250;38.102;2022-10-12T16:45:02;13.56;62.91
74946;HTU21D;63509;45.250;38.102;2022-10-12T16:47:28;13.52;62.98
74946;HTU21D;63509;45.250;38.102;2022-10-12T16:49:56;13.48;63.08
74946;HTU21D;63509;45.250;38.102;2022-10-12T16:52:23;13.44;63.17
74946;HTU21D;63509;45.250;38.102;2022-10-12T16:54:54;13.37;63.15
74946;HTU21D;63509;45.250;38.102;2022-10-12T16:57:22;13.31;63.45
74946;HTU21D;63509;45.250;38.102;2022-10-12T16:59:48;13.25;63.50
74946;HTU21D;63509;45.250;38.102;2022-10-12T17:02:16;13.21;63.59
74946;HTU21D;63509;45.250;38.102;2022-10-12T17:04:45;13.17;63.63
74946;HTU21D;63509;45.250;38.102;2022-10-12T17:07:11;13.14;63.73
74946;HTU21D;63509;45.250;38.102;2022-10-12T17:09:38;13.08;63.83
74946;HTU21D;63509;45.250;38.102;2022-10-12T17:12:04;13.04;63.92
74946;HTU21D;63509;45.250;38.102;2022-10-12T17:14:53;13.00;63.57
74946;HTU21D;63509;45.250;38.102;2022-10-12T17:17:27;12.92;64.05
74946;HTU21D;63509;45.250;38.102;2022-10-12T17:19:53;12.87;64.15
74946;HTU21D;63509;45.250;38.102;2022-10-12T17:22:21;12.81;64.26
74946;HTU21D;63509;45.250;38.102;2022-10-12T17:24:47;12.77;64.37
74946;HTU21D;63509;45.250;38.102;2022-10-12T17:27:16;12.74;64.49
74946;HTU21D;63509;45.250;38.102;2022-10-12T17:29:42;12.67;64.58
74946;HTU21D;63509;45.250;38.102;2022-10-12T17:32:10;12.63;64.69
74946;HTU21D;63509;45.250;38.102;2022-10-12T17:34:42;12.61;64.72